sensor_id;sensor_type;location;lat;lon;timestamp;P1;durP1;ratioP1;P2;durP2;ratioP2
6785;SDS011;3430;51.192;6.048;2023-05-10T00:01:14;2.90;;;2.70;;
6785;SDS011;3430;51.192;6.048;2023-05-10T00:03:39;3.17;;;2.87;;
6785;SDS011;3430;51.192;6.048;2023-05-10T00:06:05;3.27;;;2.97;;
6785;SDS011;3430;51.192;6.048;2023-05-10T00:08:30;3.23;;;2.93;;
6785;SDS011;3430;51.192;6.048;2023-05-10T00:10:55;3.30;;;3.00;;
6785;SDS011;3430;51.192;6.048;2023-05-10T00:13:21;3.07;;;2.77;;
6785;SDS011;3430;51.192;6.048;2023-05-10T00:15:46;2.70;;;2.50;;
6785;SDS011;3430;51.192;6.048;2023-05-10T00:18:12;4.33;;;2.80;;
6785;SDS011;3430;51.192;6.048;2023-05-10T00:20:37;3.10;;;2.80;;
6785;SDS011;3430;51.192;6.048;2023-05-10T00:23:02;3.37;;;2.87;;
6785;SDS011;3430;51.192;6.048;2023-05-10T00:25:28;3.33;;;2.87;;
6785;SDS011;3430;51.192;6.048;2023-05-10T00:27:53;3.20;;;2.80;;
6785;SDS011;3430;51.192;6.048;2023-05-10T00:30:20;2.83;;;2.63;;
6785;SDS011;3430;51.192;6.048;2023-05-10T00:32:45;2.80;;;2.60;;
6785;SDS011;3430;51.192;6.048;2023-05-10T00:35:13;3.40;;;3.03;;
6785;SDS011;3430;51.192;6.048;2023-05-10T00:37:38;3.27;;;2.97;;
6785;SDS011;3430;51.192;6.048;2023-05-10T00:40:03;3.43;;;3.13;;
6785;SDS011;3430;51.192;6.048;2023-05-10T00:42:29;2.57;;;2.37;;
6785;SDS011;3430;51.192;6.048;2023-05-10T00:44:55;3.13;;;2.83;;
6785;SDS011;3430;51.192;6.048;2023-05-10T00:47:21;3.23;;;2.93;;
6785;SDS011;3430;51.192;6.048;2023-05-10T00:49:46;3.50;;;3.20;;
6785;SDS011;3430;51.192;6.048;2023-05-10T00:52:12;3.17;;;2.80;;
6785;SDS011;3430;51.192;6.048;2023-05-10T00:54:38;3.10;;;2.90;;
6785;SDS011;3430;51.192;6.048;2023-05-10T00:57:03;3.00;;;2.80;;
6785;SDS011;3430;51.192;6.048;2023-05-10T00:59:29;2.90;;;2.70;;
6785;SDS011;3430;51.192;6.048;2023-05-10T01:01:54;2.93;;;2.73;;
6785;SDS011;3430;51.192;6.048;2023-05-10T01:04:20;3.30;;;3.00;;
6785;SDS011;3430;51.192;6.048;2023-05-10T01:06:50;2.87;;;2.67;;
6785;SDS011;3430;51.192;6.048;2023-05-10T01:09:16;3.20;;;2.90;;
6785;SDS011;3430;51.192;6.048;2023-05-10T01:11:42;4.33;;;2.60;;
6785;SDS011;3430;51.192;6.048;2023-05-10T01:14:07;2.80;;;2.60;;
6785;SDS011;3430;51.192;6.048;2023-05-10T01:16:34;2.73;;;2.53;;
6785;SDS011;3430;51.192;6.048;2023-05-10T01:19:01;3.20;;;2.90;;
6785;SDS011;3430;51.192;6.048;2023-05-10T01:21:43;3.17;;;2.67;;
6785;SDS011;3430;51.192;6.048;2023-05-10T01:34:42;2.93;;;2.70;;
6785;SDS011;3430;51.192;6.048;2023-05-10T01:37:13;2.87;;;2.67;;
6785;SDS011;3430;51.192;6.048;2023-05-10T01:42:16;2.73;;;2.53;;
6785;SDS011;3430;51.192;6.048;2023-05-10T01:44:44;3.73;;;2.77;;
6785;SDS011;3430;51.192;6.048;2023-05-10T01:47:20;3.10;;;2.90;;
6785;SDS011;3430;51.192;6.048;2023-05-10T01:49:50;3.20;;;2.80;;
6785;SDS011;3430;51.192;6.048;2023-05-10T01:52:18;2.97;;;2.77;;
6785;SDS011;3430;51.192;6.048;2023-05-10T01:54:53;2.77;;;2.50;;
6785;SDS011;3430;51.192;6.048;2023-05-10T01:57:20;2.87;;;2.67;;
6785;SDS011;3430;51.192;6.048;2023-05-10T01:59:46;3.13;;;2.83;;
6785;SDS011;3430;51.192;6.048;2023-05-10T02:02:14;2.90;;;2.67;;
6785;SDS011;3430;51.192;6.048;2023-05-10T02:04:40;2.80;;;2.60;;
6785;SDS011;3430;51.192;6.048;2023-05-10T02:07:06;2.83;;;2.63;;
6785;SDS011;3430;51.192;6.048;2023-05-10T02:09:32;3.03;;;2.80;;
6785;SDS011;3430;51.192;6.048;2023-05-10T02:11:58;2.77;;;2.57;;
6785;SDS011;3430;51.192;6.048;2023-05-10T02:14:25;2.70;;;2.50;;
6785;SDS011;3430;51.192;6.048;2023-05-10T02:16:51;3.17;;;2.87;;
6785;SDS011;3430;51.192;6.048;2023-05-10T02:19:18;2.77;;;2.57;;
6785;SDS011;3430;51.192;6.048;2023-05-10T02:21:44;3.07;;;2.77;;
6785;SDS011;3430;51.192;6.048;2023-05-10T02:24:10;3.00;;;2.70;;
6785;SDS011;3430;51.192;6.048;2023-05-10T02:26:36;3.10;;;2.80;;
6785;SDS011;3430;51.192;6.048;2023-05-10T02:29:03;3.13;;;2.90;;
6785;SDS011;3430;51.192;6.048;2023-05-10T02:31:33;2.80;;;2.60;;
6785;SDS011;3430;51.192;6.048;2023-05-10T02:33:59;3.70;;;2.90;;
6785;SDS011;3430;51.192;6.048;2023-05-10T02:36:26;4.37;;;2.70;;
6785;SDS011;3430;51.192;6.048;2023-05-10T02:38:52;3.63;;;3.20;;
6785;SDS011;3430;51.192;6.048;2023-05-10T02:41:18;2.87;;;2.67;;
6785;SDS011;3430;51.192;6.048;2023-05-10T02:43:44;3.13;;;2.83;;
6785;SDS011;3430;51.192;6.048;2023-05-10T02:46:11;3.27;;;2.97;;
6785;SDS011;3430;51.192;6.048;2023-05-10T02:48:36;3.50;;;3.20;;
6785;SDS011;3430;51.192;6.048;2023-05-10T02:51:04;3.33;;;3.00;;
6785;SDS011;3430;51.192;6.048;2023-05-10T02:53:31;3.60;;;3.30;;
6785;SDS011;3430;51.192;6.048;2023-05-10T02:55:57;3.53;;;3.23;;
6785;SDS011;3430;51.192;6.048;2023-05-10T02:58:23;2.80;;;2.60;;
6785;SDS011;3430;51.192;6.048;2023-05-10T03:00:49;3.50;;;3.20;;
6785;SDS011;3430;51.192;6.048;2023-05-10T03:03:14;3.47;;;3.17;;
6785;SDS011;3430;51.192;6.048;2023-05-10T03:05:40;4.10;;;3.10;;
6785;SDS011;3430;51.192;6.048;2023-05-10T03:08:05;3.30;;;3.00;;
6785;SDS011;3430;51.192;6.048;2023-05-10T03:10:31;3.77;;;3.20;;
6785;SDS011;3430;51.192;6.048;2023-05-10T03:13:19;2.93;;;2.73;;
6785;SDS011;3430;51.192;6.048;2023-05-10T03:16:08;3.73;;;3.20;;
6785;SDS011;3430;51.192;6.048;2023-05-10T03:18:37;3.40;;;3.10;;
6785;SDS011;3430;51.192;6.048;2023-05-10T03:21:07;3.57;;;2.90;;
6785;SDS011;3430;51.192;6.048;2023-05-10T03:23:38;3.97;;;3.00;;
6785;SDS011;3430;51.192;6.048;2023-05-10T03:26:05;3.73;;;3.30;;
6785;SDS011;3430;51.192;6.048;2023-05-10T03:28:31;3.20;;;2.90;;
6785;SDS011;3430;51.192;6.048;2023-05-10T03:30:56;3.47;;;3.17;;
6785;SDS011;3430;51.192;6.048;2023-05-10T03:33:22;4.23;;;3.57;;
6785;SDS011;3430;51.192;6.048;2023-05-10T03:35:47;3.77;;;3.27;;
6785;SDS011;3430;51.192;6.048;2023-05-10T03:38:13;5.30;;;4.10;;
6785;SDS011;3430;51.192;6.048;2023-05-10T03:40:38;3.40;;;2.90;;
6785;SDS011;3430;51.192;6.048;2023-05-10T03:43:03;3.60;;;3.30;;
6785;SDS011;3430;51.192;6.048;2023-05-10T03:45:29;3.33;;;3.03;;
6785;SDS011;3430;51.192;6.048;2023-05-10T03:47:55;3.20;;;2.90;;
6785;SDS011;3430;51.192;6.048;2023-05-10T03:50:21;3.40;;;3.10;;
6785;SDS011;3430;51.192;6.048;2023-05-10T03:52:47;3.53;;;3.13;;
6785;SDS011;3430;51.192;6.048;2023-05-10T03:55:13;3.37;;;3.07;;
6785;SDS011;3430;51.192;6.048;2023-05-10T03:57:38;3.13;;;2.83;;
6785;SDS011;3430;51.192;6.048;2023-05-10T04:00:04;3.50;;;3.20;;
6785;SDS011;3430;51.192;6.048;2023-05-10T04:02:29;3.93;;;3.53;;
6785;SDS011;3430;51.192;6.048;2023-05-10T04:04:55;3.30;;;3.00;;
6785;SDS011;3430;51.192;6.048;2023-05-10T04:07:20;3.80;;;3.17;;
6785;SDS011;3430;51.192;6.048;2023-05-10T04:09:46;3.57;;;3.20;;
6785;SDS011;3430;51.192;6.048;2023-05-10T04:12:11;3.73;;;3.13;;
6785;SDS011;3430;51.192;6.048;2023-05-10T04:14:36;4.27;;;2.87;;
6785;SDS011;3430;51.192;6.048;2023-05-10T04:17:02;3.33;;;3.00;;
6785;SDS011;3430;51.192;6.048;2023-05-10T04:19:30;3.97;;;3.37;;
6785;SDS011;3430;51.192;6.048;2023-05-10T04:21:56;3.80;;;3.40;;
6785;SDS011;3430;51.192;6.048;2023-05-10T04:24:22;3.77;;;3.47;;
6785;SDS011;3430;51.192;6.048;2023-05-10T04:26:47;3.30;;;3.00;;
6785;SDS011;3430;51.192;6.048;2023-05-10T04:29:12;3.63;;;3.17;;
6785;SDS011;3430;51.192;6.048;2023-05-10T04:31:38;5.03;;;3.57;;
6785;SDS011;3430;51.192;6.048;2023-05-10T04:34:03;3.20;;;2.90;;
6785;SDS011;3430;51.192;6.048;2023-05-10T04:36:28;3.10;;;2.73;;
6785;SDS011;3430;51.192;6.048;2023-05-10T04:38:54;3.37;;;3.03;;
6785;SDS011;3430;51.192;6.048;2023-05-10T04:41:19;3.30;;;3.00;;
6785;SDS011;3430;51.192;6.048;2023-05-10T04:43:45;3.23;;;2.93;;
6785;SDS011;3430;51.192;6.048;2023-05-10T04:46:11;3.30;;;3.00;;
6785;SDS011;3430;51.192;6.048;2023-05-10T04:48:36;3.77;;;3.40;;
6785;SDS011;3430;51.192;6.048;2023-05-10T04:51:01;3.50;;;3.20;;
6785;SDS011;3430;51.192;6.048;2023-05-10T04:53:28;3.97;;;3.50;;
6785;SDS011;3430;51.192;6.048;2023-05-10T04:55:53;3.30;;;3.00;;
6785;SDS011;3430;51.192;6.048;2023-05-10T04:58:18;3.67;;;3.37;;
6785;SDS011;3430;51.192;6.048;2023-05-10T05:00:44;5.93;;;3.60;;
6785;SDS011;3430;51.192;6.048;2023-05-10T05:03:09;3.40;;;3.10;;
6785;SDS011;3430;51.192;6.048;2023-05-10T05:05:34;3.67;;;3.13;;
6785;SDS011;3430;51.192;6.048;2023-05-10T05:08:00;3.50;;;3.20;;
6785;SDS011;3430;51.192;6.048;2023-05-10T05:10:25;3.87;;;3.17;;
6785;SDS011;3430;51.192;6.048;2023-05-10T05:12:51;3.47;;;3.17;;
6785;SDS011;3430;51.192;6.048;2023-05-10T05:15:16;3.63;;;3.20;;
6785;SDS011;3430;51.192;6.048;2023-05-10T05:17:42;4.30;;;3.90;;
6785;SDS011;3430;51.192;6.048;2023-05-10T05:20:07;3.67;;;2.67;;
6785;SDS011;3430;51.192;6.048;2023-05-10T05:22:33;3.37;;;3.07;;
6785;SDS011;3430;51.192;6.048;2023-05-10T05:25:01;3.60;;;3.27;;
6785;SDS011;3430;51.192;6.048;2023-05-10T05:27:27;4.27;;;3.43;;
6785;SDS011;3430;51.192;6.048;2023-05-10T05:29:56;4.93;;;3.63;;
6785;SDS011;3430;51.192;6.048;2023-05-10T05:32:21;4.47;;;3.40;;
6785;SDS011;3430;51.192;6.048;2023-05-10T05:34:47;4.73;;;3.50;;
6785;SDS011;3430;51.192;6.048;2023-05-10T05:37:16;3.90;;;3.50;;
6785;SDS011;3430;51.192;6.048;2023-05-10T05:39:41;5.33;;;3.50;;
6785;SDS011;3430;51.192;6.048;2023-05-10T05:42:07;4.60;;;3.30;;
6785;SDS011;3430;51.192;6.048;2023-05-10T05:44:32;3.77;;;3.20;;
6785;SDS011;3430;51.192;6.048;2023-05-10T05:47:04;3.50;;;3.00;;
6785;SDS011;3430;51.192;6.048;2023-05-10T05:49:29;3.67;;;3.00;;
6785;SDS011;3430;51.192;6.048;2023-05-10T05:51:58;5.47;;;3.83;;
6785;SDS011;3430;51.192;6.048;2023-05-10T05:54:23;5.60;;;3.47;;
6785;SDS011;3430;51.192;6.048;2023-05-10T05:56:48;3.77;;;3.43;;
6785;SDS011;3430;51.192;6.048;2023-05-10T05:59:13;4.03;;;3.10;;
6785;SDS011;3430;51.192;6.048;2023-05-10T06:01:39;5.73;;;3.70;;
6785;SDS011;3430;51.192;6.048;2023-05-10T06:04:04;4.60;;;3.80;;
6785;SDS011;3430;51.192;6.048;2023-05-10T06:06:29;4.37;;;3.50;;
6785;SDS011;3430;51.192;6.048;2023-05-10T06:08:54;4.30;;;3.80;;
6785;SDS011;3430;51.192;6.048;2023-05-10T06:11:20;4.73;;;3.50;;
6785;SDS011;3430;51.192;6.048;2023-05-10T06:13:46;4.63;;;4.20;;
6785;SDS011;3430;51.192;6.048;2023-05-10T06:16:12;4.20;;;3.67;;
6785;SDS011;3430;51.192;6.048;2023-05-10T06:18:38;4.53;;;3.67;;
6785;SDS011;3430;51.192;6.048;2023-05-10T06:21:03;5.20;;;3.63;;
6785;SDS011;3430;51.192;6.048;2023-05-10T06:23:28;4.00;;;3.60;;
6785;SDS011;3430;51.192;6.048;2023-05-10T06:25:54;5.80;;;3.93;;
6785;SDS011;3430;51.192;6.048;2023-05-10T06:28:19;5.57;;;4.43;;
6785;SDS011;3430;51.192;6.048;2023-05-10T06:30:44;6.70;;;4.40;;
6785;SDS011;3430;51.192;6.048;2023-05-10T06:33:10;5.13;;;4.10;;
6785;SDS011;3430;51.192;6.048;2023-05-10T06:35:35;5.17;;;3.90;;
6785;SDS011;3430;51.192;6.048;2023-05-10T06:38:01;3.87;;;3.47;;
6785;SDS011;3430;51.192;6.048;2023-05-10T06:40:28;5.73;;;3.67;;
6785;SDS011;3430;51.192;6.048;2023-05-10T06:42:53;5.53;;;4.10;;
6785;SDS011;3430;51.192;6.048;2023-05-10T06:45:18;4.87;;;3.73;;
6785;SDS011;3430;51.192;6.048;2023-05-10T06:47:44;5.40;;;4.03;;
6785;SDS011;3430;51.192;6.048;2023-05-10T06:50:09;6.23;;;4.30;;
6785;SDS011;3430;51.192;6.048;2023-05-10T06:52:36;5.70;;;4.33;;
6785;SDS011;3430;51.192;6.048;2023-05-10T06:55:01;5.30;;;4.20;;
6785;SDS011;3430;51.192;6.048;2023-05-10T06:57:28;6.13;;;4.90;;
6785;SDS011;3430;51.192;6.048;2023-05-10T06:59:53;7.13;;;4.27;;
6785;SDS011;3430;51.192;6.048;2023-05-10T07:02:20;6.33;;;4.73;;
6785;SDS011;3430;51.192;6.048;2023-05-10T07:04:46;5.40;;;3.80;;
6785;SDS011;3430;51.192;6.048;2023-05-10T07:07:12;5.10;;;3.77;;
6785;SDS011;3430;51.192;6.048;2023-05-10T07:09:38;5.20;;;3.63;;
6785;SDS011;3430;51.192;6.048;2023-05-10T07:12:03;6.03;;;4.30;;
6785;SDS011;3430;51.192;6.048;2023-05-10T07:14:29;4.77;;;4.13;;
6785;SDS011;3430;51.192;6.048;2023-05-10T07:16:54;6.50;;;4.57;;
6785;SDS011;3430;51.192;6.048;2023-05-10T07:19:20;6.70;;;4.20;;
6785;SDS011;3430;51.192;6.048;2023-05-10T07:21:45;4.57;;;3.80;;
6785;SDS011;3430;51.192;6.048;2023-05-10T07:24:10;5.67;;;4.37;;
6785;SDS011;3430;51.192;6.048;2023-05-10T07:26:36;6.83;;;5.00;;
6785;SDS011;3430;51.192;6.048;2023-05-10T07:29:01;6.20;;;4.80;;
6785;SDS011;3430;51.192;6.048;2023-05-10T07:31:27;7.10;;;5.40;;
6785;SDS011;3430;51.192;6.048;2023-05-10T07:33:52;7.47;;;4.77;;
6785;SDS011;3430;51.192;6.048;2023-05-10T07:36:18;7.10;;;5.53;;
6785;SDS011;3430;51.192;6.048;2023-05-10T07:38:43;7.10;;;4.83;;
6785;SDS011;3430;51.192;6.048;2023-05-10T07:41:09;8.30;;;5.10;;
6785;SDS011;3430;51.192;6.048;2023-05-10T07:43:34;8.20;;;4.97;;
6785;SDS011;3430;51.192;6.048;2023-05-10T07:46:00;6.67;;;5.13;;
6785;SDS011;3430;51.192;6.048;2023-05-10T07:48:25;8.87;;;5.53;;
6785;SDS011;3430;51.192;6.048;2023-05-10T07:50:51;7.77;;;5.50;;
6785;SDS011;3430;51.192;6.048;2023-05-10T07:53:16;10.13;;;5.43;;
6785;SDS011;3430;51.192;6.048;2023-05-10T07:55:41;8.40;;;5.53;;
6785;SDS011;3430;51.192;6.048;2023-05-10T07:58:07;8.43;;;6.03;;
6785;SDS011;3430;51.192;6.048;2023-05-10T08:00:32;8.07;;;5.23;;
6785;SDS011;3430;51.192;6.048;2023-05-10T08:02:57;6.37;;;4.77;;
6785;SDS011;3430;51.192;6.048;2023-05-10T08:05:23;5.70;;;4.53;;
6785;SDS011;3430;51.192;6.048;2023-05-10T08:07:48;6.27;;;4.83;;
6785;SDS011;3430;51.192;6.048;2023-05-10T08:10:13;6.43;;;4.80;;
6785;SDS011;3430;51.192;6.048;2023-05-10T08:12:38;7.47;;;5.03;;
6785;SDS011;3430;51.192;6.048;2023-05-10T08:15:04;6.37;;;5.03;;
6785;SDS011;3430;51.192;6.048;2023-05-10T08:17:30;6.27;;;4.90;;
6785;SDS011;3430;51.192;6.048;2023-05-10T08:19:55;5.93;;;4.60;;
6785;SDS011;3430;51.192;6.048;2023-05-10T08:22:20;8.13;;;5.10;;
6785;SDS011;3430;51.192;6.048;2023-05-10T08:24:46;8.67;;;4.73;;
6785;SDS011;3430;51.192;6.048;2023-05-10T08:27:11;6.63;;;5.50;;
6785;SDS011;3430;51.192;6.048;2023-05-10T08:29:37;7.37;;;5.37;;
6785;SDS011;3430;51.192;6.048;2023-05-10T08:32:02;8.10;;;5.50;;
6785;SDS011;3430;51.192;6.048;2023-05-10T08:34:27;8.93;;;5.87;;
6785;SDS011;3430;51.192;6.048;2023-05-10T08:36:52;7.23;;;5.57;;
6785;SDS011;3430;51.192;6.048;2023-05-10T08:39:18;9.60;;;6.40;;
6785;SDS011;3430;51.192;6.048;2023-05-10T08:41:44;6.30;;;5.03;;
6785;SDS011;3430;51.192;6.048;2023-05-10T08:44:09;6.80;;;5.10;;
6785;SDS011;3430;51.192;6.048;2023-05-10T08:46:35;10.97;;;5.77;;
6785;SDS011;3430;51.192;6.048;2023-05-10T08:49:03;6.60;;;5.33;;
6785;SDS011;3430;51.192;6.048;2023-05-10T08:51:29;7.83;;;4.97;;
6785;SDS011;3430;51.192;6.048;2023-05-10T08:53:57;7.67;;;4.53;;
6785;SDS011;3430;51.192;6.048;2023-05-10T08:56:22;8.30;;;5.70;;
6785;SDS011;3430;51.192;6.048;2023-05-10T08:58:48;13.77;;;5.37;;
6785;SDS011;3430;51.192;6.048;2023-05-10T09:01:14;9.27;;;5.63;;
6785;SDS011;3430;51.192;6.048;2023-05-10T09:03:41;8.50;;;5.53;;
6785;SDS011;3430;51.192;6.048;2023-05-10T09:06:06;8.80;;;6.37;;
6785;SDS011;3430;51.192;6.048;2023-05-10T09:08:32;8.80;;;6.33;;
6785;SDS011;3430;51.192;6.048;2023-05-10T09:10:58;7.43;;;5.07;;
6785;SDS011;3430;51.192;6.048;2023-05-10T09:13:25;7.53;;;6.03;;
6785;SDS011;3430;51.192;6.048;2023-05-10T09:15:51;8.17;;;5.93;;
6785;SDS011;3430;51.192;6.048;2023-05-10T09:18:16;9.87;;;6.40;;
6785;SDS011;3430;51.192;6.048;2023-05-10T09:20:42;7.07;;;5.43;;
6785;SDS011;3430;51.192;6.048;2023-05-10T09:23:07;7.30;;;5.80;;
6785;SDS011;3430;51.192;6.048;2023-05-10T09:25:33;11.10;;;6.67;;
6785;SDS011;3430;51.192;6.048;2023-05-10T09:27:58;8.90;;;6.17;;
6785;SDS011;3430;51.192;6.048;2023-05-10T09:30:25;9.70;;;6.83;;
6785;SDS011;3430;51.192;6.048;2023-05-10T09:32:51;14.13;;;6.33;;
6785;SDS011;3430;51.192;6.048;2023-05-10T09:35:18;6.17;;;4.90;;
6785;SDS011;3430;51.192;6.048;2023-05-10T09:37:47;12.47;;;7.30;;
6785;SDS011;3430;51.192;6.048;2023-05-10T09:40:14;7.23;;;4.93;;
6785;SDS011;3430;51.192;6.048;2023-05-10T09:42:50;7.30;;;5.43;;
6785;SDS011;3430;51.192;6.048;2023-05-10T09:45:15;9.03;;;6.67;;
6785;SDS011;3430;51.192;6.048;2023-05-10T09:47:41;7.83;;;5.97;;
6785;SDS011;3430;51.192;6.048;2023-05-10T09:50:06;6.97;;;5.57;;
6785;SDS011;3430;51.192;6.048;2023-05-10T09:52:53;7.13;;;4.63;;
6785;SDS011;3430;51.192;6.048;2023-05-10T09:55:18;6.77;;;5.20;;
6785;SDS011;3430;51.192;6.048;2023-05-10T09:57:44;6.57;;;5.57;;
6785;SDS011;3430;51.192;6.048;2023-05-10T10:00:10;7.17;;;5.73;;
6785;SDS011;3430;51.192;6.048;2023-05-10T10:02:41;6.70;;;5.37;;
6785;SDS011;3430;51.192;6.048;2023-05-10T10:05:06;7.00;;;5.43;;
6785;SDS011;3430;51.192;6.048;2023-05-10T10:07:32;7.77;;;5.67;;
6785;SDS011;3430;51.192;6.048;2023-05-10T10:09:58;5.63;;;4.70;;
6785;SDS011;3430;51.192;6.048;2023-05-10T10:12:23;6.57;;;5.40;;
6785;SDS011;3430;51.192;6.048;2023-05-10T10:14:49;7.90;;;5.60;;
6785;SDS011;3430;51.192;6.048;2023-05-10T10:17:15;9.83;;;6.37;;
6785;SDS011;3430;51.192;6.048;2023-05-10T10:19:41;6.67;;;5.93;;
6785;SDS011;3430;51.192;6.048;2023-05-10T10:22:06;6.67;;;5.30;;
6785;SDS011;3430;51.192;6.048;2023-05-10T10:24:31;7.60;;;5.83;;
6785;SDS011;3430;51.192;6.048;2023-05-10T10:26:58;9.37;;;6.60;;
6785;SDS011;3430;51.192;6.048;2023-05-10T10:34:39;10.53;;;5.20;;
6785;SDS011;3430;51.192;6.048;2023-05-10T10:37:05;6.33;;;5.33;;
6785;SDS011;3430;51.192;6.048;2023-05-10T10:39:31;9.07;;;6.03;;
6785;SDS011;3430;51.192;6.048;2023-05-10T10:41:57;8.40;;;5.40;;
6785;SDS011;3430;51.192;6.048;2023-05-10T10:47:04;7.13;;;4.97;;
6785;SDS011;3430;51.192;6.048;2023-05-10T10:50:02;6.90;;;5.73;;
6785;SDS011;3430;51.192;6.048;2023-05-10T10:52:31;6.53;;;5.27;;
6785;SDS011;3430;51.192;6.048;2023-05-10T10:54:59;7.90;;;5.07;;
6785;SDS011;3430;51.192;6.048;2023-05-10T10:57:25;6.50;;;5.40;;
6785;SDS011;3430;51.192;6.048;2023-05-10T10:59:51;6.87;;;5.37;;
6785;SDS011;3430;51.192;6.048;2023-05-10T11:02:32;7.13;;;5.23;;
6785;SDS011;3430;51.192;6.048;2023-05-10T11:04:57;6.30;;;5.23;;
6785;SDS011;3430;51.192;6.048;2023-05-10T11:07:22;8.67;;;6.07;;
6785;SDS011;3430;51.192;6.048;2023-05-10T11:09:48;4.47;;;3.93;;
6785;SDS011;3430;51.192;6.048;2023-05-10T11:12:13;5.43;;;4.67;;
6785;SDS011;3430;51.192;6.048;2023-05-10T11:14:39;5.60;;;4.77;;
6785;SDS011;3430;51.192;6.048;2023-05-10T11:17:26;6.90;;;5.27;;
6785;SDS011;3430;51.192;6.048;2023-05-10T11:20:03;6.63;;;4.97;;
6785;SDS011;3430;51.192;6.048;2023-05-10T11:22:31;6.13;;;5.20;;
6785;SDS011;3430;51.192;6.048;2023-05-10T11:25:13;6.80;;;5.23;;
6785;SDS011;3430;51.192;6.048;2023-05-10T11:27:39;6.77;;;4.90;;
6785;SDS011;3430;51.192;6.048;2023-05-10T11:30:05;5.80;;;4.70;;
6785;SDS011;3430;51.192;6.048;2023-05-10T11:32:31;6.07;;;4.70;;
6785;SDS011;3430;51.192;6.048;2023-05-10T11:34:57;5.43;;;4.70;;
6785;SDS011;3430;51.192;6.048;2023-05-10T11:37:22;6.30;;;4.97;;
6785;SDS011;3430;51.192;6.048;2023-05-10T11:39:47;6.50;;;4.67;;
6785;SDS011;3430;51.192;6.048;2023-05-10T11:42:12;6.00;;;5.03;;
6785;SDS011;3430;51.192;6.048;2023-05-10T11:44:38;6.50;;;4.90;;
6785;SDS011;3430;51.192;6.048;2023-05-10T11:47:03;6.53;;;5.30;;
6785;SDS011;3430;51.192;6.048;2023-05-10T11:49:28;6.43;;;5.10;;
6785;SDS011;3430;51.192;6.048;2023-05-10T11:52:03;6.30;;;4.97;;
6785;SDS011;3430;51.192;6.048;2023-05-10T11:54:28;6.87;;;5.10;;
6785;SDS011;3430;51.192;6.048;2023-05-10T11:56:53;6.20;;;4.93;;
6785;SDS011;3430;51.192;6.048;2023-05-10T11:59:19;6.40;;;5.20;;
6785;SDS011;3430;51.192;6.048;2023-05-10T12:01:44;6.33;;;5.37;;
6785;SDS011;3430;51.192;6.048;2023-05-10T12:04:09;5.97;;;4.77;;
6785;SDS011;3430;51.192;6.048;2023-05-10T12:06:37;6.83;;;5.17;;
6785;SDS011;3430;51.192;6.048;2023-05-10T12:09:05;7.03;;;4.90;;
6785;SDS011;3430;51.192;6.048;2023-05-10T12:11:31;5.50;;;4.33;;
6785;SDS011;3430;51.192;6.048;2023-05-10T12:13:56;7.27;;;5.33;;
6785;SDS011;3430;51.192;6.048;2023-05-10T12:16:25;6.07;;;5.27;;
6785;SDS011;3430;51.192;6.048;2023-05-10T12:18:53;6.03;;;5.00;;
6785;SDS011;3430;51.192;6.048;2023-05-10T12:21:20;6.37;;;4.47;;
6785;SDS011;3430;51.192;6.048;2023-05-10T12:23:49;5.77;;;5.03;;
6785;SDS011;3430;51.192;6.048;2023-05-10T12:26:15;6.00;;;5.30;;
6785;SDS011;3430;51.192;6.048;2023-05-10T12:28:40;6.23;;;5.00;;
6785;SDS011;3430;51.192;6.048;2023-05-10T12:31:06;7.77;;;5.27;;
6785;SDS011;3430;51.192;6.048;2023-05-10T12:36:15;5.97;;;5.37;;
6785;SDS011;3430;51.192;6.048;2023-05-10T12:38:41;6.30;;;4.90;;
6785;SDS011;3430;51.192;6.048;2023-05-10T12:41:13;7.67;;;5.03;;
6785;SDS011;3430;51.192;6.048;2023-05-10T12:43:39;5.73;;;5.13;;
6785;SDS011;3430;51.192;6.048;2023-05-10T12:46:08;6.47;;;4.60;;
6785;SDS011;3430;51.192;6.048;2023-05-10T12:48:34;6.10;;;5.20;;
6785;SDS011;3430;51.192;6.048;2023-05-10T12:51:00;5.43;;;4.80;;
6785;SDS011;3430;51.192;6.048;2023-05-10T12:53:26;5.50;;;4.83;;
6785;SDS011;3430;51.192;6.048;2023-05-10T12:55:51;7.40;;;5.70;;
6785;SDS011;3430;51.192;6.048;2023-05-10T12:58:17;6.63;;;4.87;;
6785;SDS011;3430;51.192;6.048;2023-05-10T13:00:42;6.80;;;5.00;;
6785;SDS011;3430;51.192;6.048;2023-05-10T13:03:08;5.60;;;4.67;;
6785;SDS011;3430;51.192;6.048;2023-05-10T13:05:34;5.33;;;4.83;;
6785;SDS011;3430;51.192;6.048;2023-05-10T13:07:59;5.87;;;4.40;;
6785;SDS011;3430;51.192;6.048;2023-05-10T13:10:25;6.93;;;5.23;;
6785;SDS011;3430;51.192;6.048;2023-05-10T13:12:50;8.33;;;5.13;;
6785;SDS011;3430;51.192;6.048;2023-05-10T13:15:15;5.50;;;4.40;;
6785;SDS011;3430;51.192;6.048;2023-05-10T13:17:41;6.80;;;4.77;;
6785;SDS011;3430;51.192;6.048;2023-05-10T13:20:07;6.53;;;4.90;;
6785;SDS011;3430;51.192;6.048;2023-05-10T13:22:34;6.03;;;4.80;;
6785;SDS011;3430;51.192;6.048;2023-05-10T13:25:00;6.97;;;4.77;;
6785;SDS011;3430;51.192;6.048;2023-05-10T13:27:25;5.90;;;5.30;;
6785;SDS011;3430;51.192;6.048;2023-05-10T13:29:50;5.90;;;5.10;;
6785;SDS011;3430;51.192;6.048;2023-05-10T13:32:16;6.33;;;4.73;;
6785;SDS011;3430;51.192;6.048;2023-05-10T13:34:41;6.30;;;5.70;;
6785;SDS011;3430;51.192;6.048;2023-05-10T13:37:06;6.27;;;5.17;;
6785;SDS011;3430;51.192;6.048;2023-05-10T13:39:31;5.20;;;4.50;;
6785;SDS011;3430;51.192;6.048;2023-05-10T13:41:59;5.87;;;5.27;;
6785;SDS011;3430;51.192;6.048;2023-05-10T13:44:24;5.90;;;4.80;;
6785;SDS011;3430;51.192;6.048;2023-05-10T13:46:50;5.43;;;4.87;;
6785;SDS011;3430;51.192;6.048;2023-05-10T13:49:18;6.40;;;4.90;;
6785;SDS011;3430;51.192;6.048;2023-05-10T13:51:43;7.87;;;5.47;;
6785;SDS011;3430;51.192;6.048;2023-05-10T13:54:09;5.30;;;4.40;;
6785;SDS011;3430;51.192;6.048;2023-05-10T13:56:34;5.40;;;4.87;;
6785;SDS011;3430;51.192;6.048;2023-05-10T13:58:59;7.10;;;5.00;;
6785;SDS011;3430;51.192;6.048;2023-05-10T14:01:25;5.70;;;5.00;;
6785;SDS011;3430;51.192;6.048;2023-05-10T14:03:50;6.67;;;5.20;;
6785;SDS011;3430;51.192;6.048;2023-05-10T14:06:15;5.60;;;4.73;;
6785;SDS011;3430;51.192;6.048;2023-05-10T14:08:41;5.17;;;4.67;;
6785;SDS011;3430;51.192;6.048;2023-05-10T14:11:06;7.20;;;5.40;;
6785;SDS011;3430;51.192;6.048;2023-05-10T14:13:32;5.60;;;5.03;;
6785;SDS011;3430;51.192;6.048;2023-05-10T14:15:58;6.63;;;5.17;;
6785;SDS011;3430;51.192;6.048;2023-05-10T14:18:25;6.00;;;5.07;;
6785;SDS011;3430;51.192;6.048;2023-05-10T14:20:50;6.20;;;5.10;;
6785;SDS011;3430;51.192;6.048;2023-05-10T14:23:16;7.27;;;5.47;;
6785;SDS011;3430;51.192;6.048;2023-05-10T14:25:41;6.57;;;5.47;;
6785;SDS011;3430;51.192;6.048;2023-05-10T14:28:06;5.73;;;4.80;;
6785;SDS011;3430;51.192;6.048;2023-05-10T14:30:34;5.07;;;4.57;;
6785;SDS011;3430;51.192;6.048;2023-05-10T14:33:02;6.90;;;5.23;;
6785;SDS011;3430;51.192;6.048;2023-05-10T14:35:27;5.93;;;5.33;;
6785;SDS011;3430;51.192;6.048;2023-05-10T14:37:53;5.40;;;4.70;;
6785;SDS011;3430;51.192;6.048;2023-05-10T14:40:18;5.63;;;4.93;;
6785;SDS011;3430;51.192;6.048;2023-05-10T14:42:43;6.87;;;5.13;;
6785;SDS011;3430;51.192;6.048;2023-05-10T14:45:09;7.00;;;4.90;;
6785;SDS011;3430;51.192;6.048;2023-05-10T14:47:35;9.80;;;5.43;;
6785;SDS011;3430;51.192;6.048;2023-05-10T14:50:00;6.93;;;4.50;;
6785;SDS011;3430;51.192;6.048;2023-05-10T14:52:26;5.10;;;4.57;;
6785;SDS011;3430;51.192;6.048;2023-05-10T14:54:52;6.57;;;5.50;;
6785;SDS011;3430;51.192;6.048;2023-05-10T14:57:18;5.80;;;5.03;;
6785;SDS011;3430;51.192;6.048;2023-05-10T14:59:46;7.07;;;5.20;;
6785;SDS011;3430;51.192;6.048;2023-05-10T15:02:11;6.37;;;5.20;;
6785;SDS011;3430;51.192;6.048;2023-05-10T15:04:37;5.93;;;5.13;;
6785;SDS011;3430;51.192;6.048;2023-05-10T15:07:02;5.63;;;4.83;;
6785;SDS011;3430;51.192;6.048;2023-05-10T15:09:28;5.80;;;5.20;;
6785;SDS011;3430;51.192;6.048;2023-05-10T15:11:53;5.90;;;5.17;;
6785;SDS011;3430;51.192;6.048;2023-05-10T15:14:19;5.40;;;4.90;;
6785;SDS011;3430;51.192;6.048;2023-05-10T15:16:44;5.63;;;5.07;;
6785;SDS011;3430;51.192;6.048;2023-05-10T15:19:09;5.87;;;5.20;;
6785;SDS011;3430;51.192;6.048;2023-05-10T15:21:35;5.33;;;4.83;;
6785;SDS011;3430;51.192;6.048;2023-05-10T15:24:06;5.90;;;5.30;;
6785;SDS011;3430;51.192;6.048;2023-05-10T15:26:31;5.93;;;4.97;;
6785;SDS011;3430;51.192;6.048;2023-05-10T15:28:57;5.90;;;5.07;;
6785;SDS011;3430;51.192;6.048;2023-05-10T15:31:22;6.80;;;5.57;;
6785;SDS011;3430;51.192;6.048;2023-05-10T15:33:48;6.33;;;4.73;;